Terminal Aerodrome Forecast
Issued by NWS

Home | Current Version | Previous Version | Text Only | Print | Product List | Glossary On
Versions: 1 2 3 4 5 6 7 8 9 10 11 12 13 14 15 16 17 18 19 20 21 22 23 24
000
FTUS44 KOUN 010520
TAFWWR
TAF
KWWR 010520Z 0106/0206 18020G30KT P6SM SCT250
     FM011200 24014KT P6SM SKC
     FM011600 34011KT P6SM SKC
     FM020000 05010KT P6SM BKN250 PROB30 0200/0206 TSRA OVC060CB=

USA.gov is the U.S. government's official web portal to all federal, state and local government web resources and services.